• Join FlightAware (Why Join?)
  • Login
  • US Flag 
11:22AM EDT


 

Airport Tracker/Info


-or-


 

Live Flight TrackerFlight Track Log ✈ EGF3609 ✈ 30-Apr-2013 ✈ KPIT - KORD

Flight Track Log - Related Links

Times and Time Zones

All times are in EDT time to prevent confusion due to time zone crossing. See the EGF3609 flight status page for this flight to view local times or setup timezone preferences in your user account.

Time Position Orientation Groundspeed Altitude Reporting Facility
EDT Latitude Longitude Course Direction KTS MPH feet Rate Location/Type
06:21AM 40.5571 -80.6019 285° West  Level FlightAware Approximate
06:21AM 40.5481 -80.2253 286° West 281 323 6,100  Level Cleveland Center
06:22AM 40.5827 -80.7302 285° West  Level FlightAware Approximate
06:22AM 40.5672 -80.3208 285° West 287 330 9,200  Level Cleveland Center
06:23AM 40.6176 -80.8547 285° West  Level FlightAware Approximate
06:23AM 40.5842 -80.4219 282° West 287 330 11,300  Level Cleveland Center
06:24AM 40.6455 -80.9821 288° West  Level FlightAware Approximate
06:24AM 40.6028 -80.5503 281° West 317 365 12,800  Level Cleveland Center
06:25AM 40.6690 -81.1112 286° West  Level FlightAware Approximate
06:25AM 40.6258 -80.6844 283° West 370 426 14,600  Level Cleveland Center
06:26AM 40.6961 -81.2391 286° West  Level FlightAware Approximate
06:26AM 40.6506 -80.8347 282° West 386 444 16,900  Level Cleveland Center
06:27AM 40.6731 -80.9744 282° West 392 451 18,800 1,740 Climbing Cleveland Center
06:28AM 40.6892 -81.1033 279° West 392 451 20,400 1,500 Climbing Cleveland Center
06:29AM 40.7133 -81.2597 282° West 397 457 21,900 1,500 Climbing Cleveland Center
06:30AM 40.7356 -81.4053 281° West 403 464 23,500 1,500 Climbing Cleveland Center
06:31AM 40.7614 -81.5508 283° West 408 470 25,000 1,500 Climbing Cleveland Center
06:32AM 40.7892 -81.6992 284° West 413 475 26,500 1,440 Climbing Cleveland Center
06:33AM 40.8128 -81.8422 282° West 408 470 27,900 1,200 Climbing Cleveland Center
06:34AM 40.8422 -81.9911 285° West 413 475 29,000 1,020 Climbing Cleveland Center
06:35AM 40.8694 -82.1400 284° West 413 475 30,000 900 Climbing Cleveland Center
06:36AM 40.8925 -82.2750 283° West 418 481 30,800 900 Climbing Cleveland Center
06:37AM 40.9172 -82.4269 282° West 418 481 31,800 600 Climbing Cleveland Center
06:38AM 40.9458 -82.5844 284° West 432 497 32,000 60 Climbing Cleveland Center
06:39AM 40.9744 -82.7392 284° West 437 503 32,000  Level Cleveland Center
06:40AM 41.0044 -82.9136 283° West 437 503 32,000  Level Cleveland Center
06:41AM 41.0322 -83.0769 283° West 437 503 32,000  Level Cleveland Center
06:42AM 41.0581 -83.2186 284° West 444 511 32,000  Level Cleveland Center
06:43AM 41.0878 -83.3767 284° West 438 504 32,000  Level Cleveland Center
06:44AM 41.1106 -83.5431 280° West 438 504 32,000  Level Cleveland Center
06:45AM 41.1356 -83.7042 282° West 438 504 32,000  Level Cleveland Center
06:47AM 41.1978 -84.0628 283° West 432 497 32,000  Level Chicago Center
06:48AM 41.2222 -84.2175 282° West 429 494 32,000  Level Chicago Center
06:49AM 41.2275 -84.3778 273° West 433 498 32,000  Level Chicago Center
06:50AM 41.2322 -84.5358 272° West 431 496 32,000  Level Chicago Center
06:51AM 41.2358 -84.6958 272° West 432 497 32,000  Level Chicago Center
06:52AM 41.2422 -84.8558 273° West 433 498 32,000  Level Chicago Center
06:53AM 41.2464 -85.0147 272° West 431 496 32,000  Level Chicago Center
06:54AM 41.2506 -85.1756 272° West 432 497 32,000 -240 Level Chicago Center
06:55AM 41.2550 -85.3378 272° West 436 502 31,600 -1,020 Descending Chicago Center
06:56AM 41.2600 -85.5036 272° West 441 507 30,000 -1,560 Descending Chicago Center
06:57AM 41.2642 -85.6669 272° West 441 507 28,500 -1,560 Descending Chicago Center
06:58AM 41.2797 -85.8247 278° West 443 510 26,900 -1,620 Descending Chicago Center
06:59AM 41.3119 -85.9756 286° West 426 490 25,300 -960 Descending Chicago Center
07:00AM 41.3450 -86.1292 286° West 427 491 25,000 -180 Descending Chicago Center
07:01AM 41.3786 -86.2853 286° West 441 507 25,000  Level Chicago Center
07:02AM 41.4131 -86.4450 286° West 445 512 25,000  Level Chicago Center
07:03AM 41.4469 -86.6050 286° West 450 518 25,000 -1,260 Level Chicago Center
07:04AM 41.4775 -86.7453 286° West 409 471 22,500 -3,240 Descending Chicago Center
07:05AM 41.5125 -86.9128 286° West 392 451 18,500 -3,600 Descending Chicago Center
07:06AM 41.5419 -87.0456 287° West 380 437 15,300 -3,060 Descending Chicago Center
07:07AM 41.5678 -87.1753 285° West 366 421 12,300 -2,400 Descending Chicago Center
07:08AM 41.5833 -87.2167 297° West 345 397 12,000 -960 Descending Chicago TRACON
07:09AM 41.6333 -87.3167 304° West 349 402 11,000 -1,020 Descending Chicago TRACON
07:09AM 41.6678 -87.3864 303° West 348 400 10,400 -660 Descending Chicago Center
07:10AM 41.7272 -87.4833 309° West 342 394 10,000 -300 Descending Chicago Center
07:11AM 41.7811 -87.5717 309° West 309 356 9,800 -780 Descending Chicago Center
07:12AM 41.8289 -87.6522 309° West 280 322 8,500 -1,440 Descending Chicago Center
07:13AM 41.8500 -87.6833 312° West 276 318 7,900 -1,020 Descending Chicago TRACON
07:14AM 41.9333 -87.7000 352° North 281 323 7,200 -480 Descending Chicago TRACON
07:15AM 42.0000 -87.7000 360° North 223 257 7,000 -540 Descending Chicago TRACON
07:16AM 42.0500 -87.6833 14° North 208 239 6,100 -1,200 Descending Chicago TRACON
07:17AM 42.1000 -87.7333 323° Northwest 180 207 4,600 -1,440 Descending Chicago TRACON
07:18AM 42.0833 -87.7833 246° West 144 166 3,200 -1,320 Descending Chicago TRACON